Time;durP1;ratioP1;P1;durP2;ratioP2;P2;SDS_P1;SDS_P2;PMS_P1;PMS_P2;Temp;Humidity;BMP_temperature;BMP_pressure;BME280_temperature;BME280_humidity;BME280_pressure;Samples;Min_cycle;Max_cycle;Signal;HPM_P1;HPM_P2
2023/10/17 00:00:39;;;;;;;;;;;19.00;45.30;;;;;;5051333;28;19960;-65
2023/10/17 00:03:06;;;;;;;;;;;19.00;45.30;;;;;;5045578;28;19925;-65
2023/10/17 00:05:33;;;;;;;;;;;18.90;45.20;;;;;;5040510;28;20008;-65
2023/10/17 00:08:02;;;;;;;;;;;19.00;45.30;;;;;;5049845;28;19927;-65
2023/10/17 00:10:31;;;;;;;;;;;19.00;45.30;;;;;;5043146;28;19948;-65
2023/10/17 00:13:16;;;;;;;;;;;19.00;45.30;;;;;;5036293;28;20021;-65
2023/10/17 00:15:45;;;;;;;;;;;19.00;45.30;;;;;;5050048;28;19935;-65
2023/10/17 00:18:15;;;;;;;;;;;19.00;45.40;;;;;;5035995;28;20016;-65
2023/10/17 00:20:43;;;;;;;;;;;18.90;45.40;;;;;;5050791;28;19921;-65
2023/10/17 00:23:14;;;;;;;;;;;18.90;45.40;;;;;;5048195;28;19925;-66
2023/10/17 00:25:45;;;;;;;;;;;18.90;45.30;;;;;;5032643;28;19921;-64
2023/10/17 00:28:13;;;;;;;;;;;18.90;45.40;;;;;;5034685;28;19921;-66
2023/10/17 00:30:41;;;;;;;;;;;18.90;45.40;;;;;;5044696;28;20011;-65
2023/10/17 00:33:10;;;;;;;;;;;18.90;45.40;;;;;;5033932;28;19921;-65
2023/10/17 00:35:38;;;;;;;;;;;18.90;45.40;;;;;;5049157;28;19952;-65
2023/10/17 00:38:07;;;;;;;;;;;18.90;45.40;;;;;;5049424;28;20342;-65
2023/10/17 00:40:47;;;;;;;;;;;18.90;45.30;;;;;;5049419;28;20261;-66
2023/10/17 00:43:14;;;;;;;;;;;18.90;45.30;;;;;;5049446;28;19992;-65
2023/10/17 00:45:41;;;;;;;;;;;18.90;45.40;;;;;;5053656;28;19921;-65
2023/10/17 00:48:17;;;;;;;;;;;18.90;45.40;;;;;;5053424;28;19971;-65
2023/10/17 00:50:44;;;;;;;;;;;18.90;45.40;;;;;;5053399;28;19928;-65
2023/10/17 00:53:11;;;;;;;;;;;18.90;45.40;;;;;;5052837;28;19974;-65
2023/10/17 00:55:37;;;;;;;;;;;18.90;45.40;;;;;;5054049;28;19925;-65
2023/10/17 00:58:06;;;;;;;;;;;18.90;45.40;;;;;;5054458;28;19971;-65
2023/10/17 01:00:36;;;;;;;;;;;18.90;45.40;;;;;;5036967;28;20335;-65
2023/10/17 01:03:08;;;;;;;;;;;18.90;45.40;;;;;;5036958;28;19948;-65
2023/10/17 01:05:46;;;;;;;;;;;18.90;45.40;;;;;;5054324;28;19963;-65
2023/10/17 01:08:13;;;;;;;;;;;18.90;45.40;;;;;;5048880;28;20366;-65
2023/10/17 01:10:40;;;;;;;;;;;18.90;45.40;;;;;;5053731;28;19921;-65
2023/10/17 01:13:07;;;;;;;;;;;18.90;45.40;;;;;;5034623;28;19925;-65
2023/10/17 01:15:37;;;;;;;;;;;18.90;45.40;;;;;;5015905;28;19921;-65
2023/10/17 01:18:05;;;;;;;;;;;18.90;45.40;;;;;;5044303;28;20370;-65
2023/10/17 01:20:31;;;;;;;;;;;18.90;45.40;;;;;;5052206;28;20364;-65
2023/10/17 01:23:00;;;;;;;;;;;18.90;45.40;;;;;;5049608;28;19928;-65
2023/10/17 01:25:29;;;;;;;;;;;18.90;45.40;;;;;;5047453;28;19931;-64
2023/10/17 01:27:57;;;;;;;;;;;18.90;45.40;;;;;;5052450;28;20118;-65
2023/10/17 01:30:28;;;;;;;;;;;18.90;45.40;;;;;;5053762;28;19921;-65
2023/10/17 01:32:56;;;;;;;;;;;18.90;45.50;;;;;;5052604;28;19964;-65
2023/10/17 01:35:23;;;;;;;;;;;18.90;45.40;;;;;;5053247;28;19921;-65
2023/10/17 01:37:51;;;;;;;;;;;18.90;45.50;;;;;;5052674;28;19921;-65
2023/10/17 01:40:22;;;;;;;;;;;18.90;45.40;;;;;;5053708;28;19921;-65
2023/10/17 01:42:51;;;;;;;;;;;18.90;45.40;;;;;;5052824;28;19920;-65
2023/10/17 01:45:21;;;;;;;;;;;18.90;45.50;;;;;;5051982;28;19963;-65
2023/10/17 01:47:47;;;;;;;;;;;18.90;45.50;;;;;;5052870;28;19931;-65
2023/10/17 01:50:14;;;;;;;;;;;18.90;45.50;;;;;;5051405;28;19932;-65
2023/10/17 01:52:42;;;;;;;;;;;18.90;45.50;;;;;;5052201;28;19928;-65
2023/10/17 01:55:10;;;;;;;;;;;18.90;45.50;;;;;;5051141;28;20406;-65
2023/10/17 01:57:40;;;;;;;;;;;18.90;45.50;;;;;;5053272;28;20263;-66
2023/10/17 02:00:17;;;;;;;;;;;18.90;45.40;;;;;;5047598;28;19925;-65
2023/10/17 02:02:44;;;;;;;;;;;18.90;45.40;;;;;;5031715;28;19921;-65
2023/10/17 02:05:12;;;;;;;;;;;18.90;45.40;;;;;;5036550;28;19922;-65
2023/10/17 02:07:39;;;;;;;;;;;18.90;45.50;;;;;;5051957;28;19924;-65
2023/10/17 02:10:08;;;;;;;;;;;18.90;45.50;;;;;;5052988;28;19970;-65
2023/10/17 02:12:36;;;;;;;;;;;18.80;45.40;;;;;;5051797;28;19920;-65
2023/10/17 02:15:06;;;;;;;;;;;18.90;45.40;;;;;;5043460;28;19924;-65
2023/10/17 02:17:35;;;;;;;;;;;18.80;45.40;;;;;;5064130;28;19921;-65
2023/10/17 02:20:20;;;;;;;;;;;18.80;45.30;;;;;;5043428;28;19924;-65
2023/10/17 02:22:49;;;;;;;;;;;18.80;45.30;;;;;;5051735;28;19925;-65
2023/10/17 02:25:21;;;;;;;;;;;18.90;45.40;;;;;;5051505;28;19924;-65
2023/10/17 02:27:48;;;;;;;;;;;18.90;45.40;;;;;;5051708;28;19920;-65
2023/10/17 02:30:15;;;;;;;;;;;18.90;45.40;;;;;;5050816;28;19951;-65
2023/10/17 02:32:46;;;;;;;;;;;18.80;45.40;;;;;;5051309;28;19920;-65
2023/10/17 02:35:14;;;;;;;;;;;18.80;45.40;;;;;;5051024;28;19921;-65
2023/10/17 02:37:44;;;;;;;;;;;18.80;45.40;;;;;;5051545;28;19931;-65
2023/10/17 02:40:20;;;;;;;;;;;18.80;46.00;;;;;;5051227;28;19921;-65
2023/10/17 02:42:47;;;;;;;;;;;18.80;45.40;;;;;;5051305;28;19920;-65
2023/10/17 02:45:14;;;;;;;;;;;18.80;45.40;;;;;;5039127;28;20371;-65
2023/10/17 02:47:43;;;;;;;;;;;18.80;45.40;;;;;;5040248;28;20367;-65
2023/10/17 02:50:23;;;;;;;;;;;18.90;45.40;;;;;;5050896;28;20354;-65
2023/10/17 02:52:51;;;;;;;;;;;18.80;45.40;;;;;;5051227;28;19928;-65
2023/10/17 02:55:23;;;;;;;;;;;18.80;45.40;;;;;;5050655;28;19949;-65
2023/10/17 02:57:51;;;;;;;;;;;18.90;45.50;;;;;;5044193;28;19925;-65
2023/10/17 03:00:23;;;;;;;;;;;18.80;45.30;;;;;;5050635;28;20270;-65
2023/10/17 03:02:52;;;;;;;;;;;18.80;45.40;;;;;;5050744;28;19929;-65
2023/10/17 03:05:21;;;;;;;;;;;18.80;45.40;;;;;;5050658;28;19921;-65
2023/10/17 03:07:50;;;;;;;;;;;18.80;45.40;;;;;;5041625;28;19928;-65
2023/10/17 03:10:23;;;;;;;;;;;18.80;45.40;;;;;;5050435;28;19978;-64
2023/10/17 03:12:55;;;;;;;;;;;18.80;45.40;;;;;;5050448;28;19921;-65
2023/10/17 03:15:23;;;;;;;;;;;18.80;45.40;;;;;;5041289;28;19924;-65
2023/10/17 03:17:53;;;;;;;;;;;18.80;45.40;;;;;;5050103;28;19921;-65
2023/10/17 03:20:36;;;;;;;;;;;18.80;45.40;;;;;;5035160;28;19959;-65
2023/10/17 03:23:04;;;;;;;;;;;18.80;45.40;;;;;;5038846;28;19921;-64
2023/10/17 03:25:37;;;;;;;;;;;18.80;45.40;;;;;;5045989;28;19975;-65
2023/10/17 03:28:08;;;;;;;;;;;18.80;45.40;;;;;;5043540;28;19925;-65
2023/10/17 03:30:35;;;;;;;;;;;18.80;45.40;;;;;;5049985;28;19943;-65
2023/10/17 03:33:13;;;;;;;;;;;18.80;45.40;;;;;;5046646;28;20000;-65
2023/10/17 03:35:56;;;;;;;;;;;18.80;45.40;;;;;;5046675;28;19920;-65
2023/10/17 03:38:26;;;;;;;;;;;18.80;45.40;;;;;;5049742;28;20024;-65
2023/10/17 03:40:53;;;;;;;;;;;18.80;45.40;;;;;;5050351;28;19921;-65
2023/10/17 03:43:22;;;;;;;;;;;18.80;45.40;;;;;;5050094;28;20015;-65
2023/10/17 03:45:56;;;;;;;;;;;18.80;45.40;;;;;;5049604;28;19920;-65
2023/10/17 03:48:23;;;;;;;;;;;18.80;45.40;;;;;;5036103;28;19924;-65
2023/10/17 03:51:08;;;;;;;;;;;18.80;45.40;;;;;;5049685;28;20397;-65
2023/10/17 03:53:42;;;;;;;;;;;18.80;45.40;;;;;;5033393;28;19921;-65
2023/10/17 03:56:11;;;;;;;;;;;18.80;45.40;;;;;;5043732;28;19921;-64
2023/10/17 03:58:49;;;;;;;;;;;18.80;45.40;;;;;;5049876;28;19924;-65
2023/10/17 04:01:18;;;;;;;;;;;18.80;45.40;;;;;;5051262;28;19924;-65
2023/10/17 04:03:45;;;;;;;;;;;18.80;45.40;;;;;;5041463;28;19921;-66
2023/10/17 04:06:24;;;;;;;;;;;18.80;45.40;;;;;;5046203;28;19924;-64
2023/10/17 04:08:56;;;;;;;;;;;18.80;45.40;;;;;;5045527;28;19927;-64
2023/10/17 04:11:27;;;;;;;;;;;18.80;45.40;;;;;;5049749;28;20031;-64
2023/10/17 04:13:54;;;;;;;;;;;18.80;45.40;;;;;;5048512;28;20310;-64
2023/10/17 04:16:26;;;;;;;;;;;18.80;45.40;;;;;;5050319;28;19920;-65
2023/10/17 04:18:55;;;;;;;;;;;18.80;45.40;;;;;;5050480;28;19920;-64
2023/10/17 04:21:29;;;;;;;;;;;18.80;45.40;;;;;;5052503;28;19921;-65
2023/10/17 04:23:59;;;;;;;;;;;18.80;45.40;;;;;;5050013;28;19920;-65
2023/10/17 04:26:28;;;;;;;;;;;18.80;45.40;;;;;;5048801;28;19971;-65
2023/10/17 04:28:55;;;;;;;;;;;18.80;45.40;;;;;;5053804;28;20011;-65
2023/10/17 04:31:26;;;;;;;;;;;18.80;45.40;;;;;;5045831;28;19921;-64
2023/10/17 04:33:56;;;;;;;;;;;18.80;45.40;;;;;;5053118;28;20040;-65
2023/10/17 04:36:26;;;;;;;;;;;18.80;45.40;;;;;;5052997;28;19921;-65
2023/10/17 04:41:41;;;;;;;;;;;18.80;45.40;;;;;;5052913;28;19927;-64
2023/10/17 04:44:15;;;;;;;;;;;18.80;45.40;;;;;;5053504;28;19921;-64
2023/10/17 04:46:50;;;;;;;;;;;18.80;45.40;;;;;;5054534;28;20027;-65
2023/10/17 04:49:18;;;;;;;;;;;18.80;45.40;;;;;;5053097;28;19928;-64
2023/10/17 04:51:52;;;;;;;;;;;18.80;45.40;;;;;;5053122;28;20366;-64
2023/10/17 04:54:22;;;;;;;;;;;18.80;45.40;;;;;;5053050;28;19925;-65
2023/10/17 04:56:59;;;;;;;;;;;18.80;45.40;;;;;;5054269;28;19925;-65
2023/10/17 04:59:41;;;;;;;;;;;18.80;45.40;;;;;;5053062;28;20290;-65
2023/10/17 05:02:35;;;;;;;;;;;18.80;45.40;;;;;;5053925;28;19920;-65
2023/10/17 05:08:11;;;;;;;;;;;18.80;45.40;;;;;;5053733;28;20380;-65
2023/10/17 06:19:15;;;;;;;;;;;18.80;46.00;;;;;;5044285;28;19935;-64
2023/10/17 06:22:35;;;;;;;;;;;18.80;46.00;;;;;;5034623;28;19932;-64
2023/10/17 06:27:43;;;;;;;;;;;18.80;46.60;;;;;;5043999;28;19920;-64
2023/10/17 06:30:27;;;;;;;;;;;18.80;46.00;;;;;;5051481;28;19948;-64
2023/10/17 06:33:05;;;;;;;;;;;18.80;46.10;;;;;;5050462;28;20002;-64
2023/10/17 06:35:31;;;;;;;;;;;18.80;46.10;;;;;;5050404;28;20325;-64
2023/10/17 06:37:59;;;;;;;;;;;18.80;46.10;;;;;;5050777;28;20434;-64
2023/10/17 06:40:30;;;;;;;;;;;18.80;46.10;;;;;;5050444;28;19920;-64
2023/10/17 06:42:59;;;;;;;;;;;18.80;46.00;;;;;;5050955;28;19943;-64
2023/10/17 06:45:27;;;;;;;;;;;18.80;46.00;;;;;;5050647;28;19920;-64
2023/10/17 06:47:58;;;;;;;;;;;18.80;46.00;;;;;;5050953;28;19964;-64
2023/10/17 06:53:15;;;;;;;;;;;18.80;46.10;;;;;;5046417;28;19922;-64
2023/10/17 06:55:44;;;;;;;;;;;18.80;46.10;;;;;;5047054;28;19920;-64
2023/10/17 06:58:11;;;;;;;;;;;18.80;46.00;;;;;;5049598;28;19927;-64
2023/10/17 07:00:51;;;;;;;;;;;18.80;46.00;;;;;;5042587;28;19951;-64
2023/10/17 07:03:24;;;;;;;;;;;18.80;46.10;;;;;;5043657;28;19921;-64
2023/10/17 07:05:51;;;;;;;;;;;18.80;46.10;;;;;;5049032;28;20023;-64
2023/10/17 07:08:20;;;;;;;;;;;18.80;46.10;;;;;;5048277;28;19920;-64
2023/10/17 07:11:02;;;;;;;;;;;18.70;46.00;;;;;;5047496;28;19925;-64
2023/10/17 07:13:50;;;;;;;;;;;18.80;46.10;;;;;;5045179;28;20023;-64
2023/10/17 07:16:25;;;;;;;;;;;18.80;46.10;;;;;;5043354;28;19921;-64
2023/10/17 07:18:52;;;;;;;;;;;18.80;46.10;;;;;;5041666;28;19921;-64
2023/10/17 07:21:23;;;;;;;;;;;18.80;46.10;;;;;;5054840;28;19931;-64
2023/10/17 07:23:53;;;;;;;;;;;18.80;46.10;;;;;;5049669;28;19925;-64
2023/10/17 07:26:35;;;;;;;;;;;18.80;46.10;;;;;;5043456;28;19998;-64
2023/10/17 07:29:05;;;;;;;;;;;18.80;46.10;;;;;;5041252;28;20027;-64
2023/10/17 07:31:33;;;;;;;;;;;18.80;46.10;;;;;;5045777;28;19921;-64
2023/10/17 07:34:16;;;;;;;;;;;18.80;46.00;;;;;;5037974;28;20240;-64
2023/10/17 07:36:43;;;;;;;;;;;18.70;45.90;;;;;;5046704;28;19921;-64
2023/10/17 07:39:22;;;;;;;;;;;18.70;45.90;;;;;;5050557;28;19957;-63
2023/10/17 07:41:53;;;;;;;;;;;18.80;46.10;;;;;;5049141;28;20282;-64
2023/10/17 07:44:21;;;;;;;;;;;18.80;46.00;;;;;;5042956;28;20019;-64
2023/10/17 07:47:04;;;;;;;;;;;18.70;45.90;;;;;;5032857;28;19988;-64
2023/10/17 07:49:31;;;;;;;;;;;18.80;46.00;;;;;;5049771;28;19944;-64
2023/10/17 07:51:58;;;;;;;;;;;18.80;46.00;;;;;;5049863;28;19982;-64
2023/10/17 07:54:28;;;;;;;;;;;18.80;46.00;;;;;;5049199;28;19975;-63
2023/10/17 07:56:55;;;;;;;;;;;18.70;45.90;;;;;;5050123;28;19924;-64
2023/10/17 07:59:30;;;;;;;;;;;18.80;46.00;;;;;;5049278;28;20028;-64
2023/10/17 08:02:00;;;;;;;;;;;18.70;45.90;;;;;;5042440;28;19935;-64
2023/10/17 08:04:30;;;;;;;;;;;18.80;46.00;;;;;;5048682;28;19921;-64
2023/10/17 08:06:57;;;;;;;;;;;18.80;46.00;;;;;;5040418;28;19956;-63
2023/10/17 08:09:35;;;;;;;;;;;18.80;46.00;;;;;;5054033;28;19921;-64
2023/10/17 08:12:04;;;;;;;;;;;18.80;46.00;;;;;;5040960;28;19924;-64
2023/10/17 08:14:34;;;;;;;;;;;18.80;46.00;;;;;;5048789;28;19924;-64
2023/10/17 08:17:03;;;;;;;;;;;18.80;46.00;;;;;;5049129;28;19928;-64
2023/10/17 08:19:35;;;;;;;;;;;18.80;46.00;;;;;;5048880;28;19929;-63
2023/10/17 08:22:10;;;;;;;;;;;18.80;46.00;;;;;;5042300;28;19925;-63
2023/10/17 08:24:44;;;;;;;;;;;18.80;46.00;;;;;;5049701;28;20297;-64
2023/10/17 08:27:17;;;;;;;;;;;18.80;46.00;;;;;;5049873;28;20016;-63
2023/10/17 08:29:43;;;;;;;;;;;18.80;46.00;;;;;;5049711;28;20171;-63
2023/10/17 08:32:38;;;;;;;;;;;18.80;46.00;;;;;;5049614;28;19927;-64
2023/10/17 08:35:07;;;;;;;;;;;18.80;46.00;;;;;;5045985;28;19929;-63
2023/10/17 08:37:43;;;;;;;;;;;18.80;46.00;;;;;;5047195;28;19921;-63
2023/10/17 08:40:29;;;;;;;;;;;18.80;45.90;;;;;;5042493;28;19947;-64
2023/10/17 08:42:56;;;;;;;;;;;18.80;45.90;;;;;;5049652;28;19921;-63
2023/10/17 08:45:26;;;;;;;;;;;18.80;45.90;;;;;;5041925;28;19921;-64
2023/10/17 08:47:57;;;;;;;;;;;18.80;45.90;;;;;;5049298;28;20007;-64
2023/10/17 08:50:24;;;;;;;;;;;18.80;45.90;;;;;;5048209;28;20020;-64
2023/10/17 08:52:51;;;;;;;;;;;18.80;45.90;;;;;;5050791;28;19924;-63
2023/10/17 08:55:18;;;;;;;;;;;18.80;45.90;;;;;;5049206;28;19932;-63
2023/10/17 08:57:46;;;;;;;;;;;18.80;45.80;;;;;;5050842;28;19921;-64
2023/10/17 09:00:24;;;;;;;;;;;18.80;45.80;;;;;;5049584;28;19921;-64
2023/10/17 09:03:00;;;;;;;;;;;18.80;45.80;;;;;;5048066;28;19943;-64
2023/10/17 09:05:27;;;;;;;;;;;18.80;45.70;;;;;;5036576;28;20205;-64
2023/10/17 09:07:55;;;;;;;;;;;18.80;45.70;;;;;;5060613;28;19920;-64
2023/10/17 09:10:28;;;;;;;;;;;18.80;45.70;;;;;;5052286;28;19927;-64
2023/10/17 09:15:48;;;;;;;;;;;18.80;45.60;;;;;;5052937;28;19928;-63
2023/10/17 09:18:17;;;;;;;;;;;18.80;45.60;;;;;;5052412;28;20473;-64
2023/10/17 09:20:48;;;;;;;;;;;18.80;45.60;;;;;;5052935;28;20020;-63
2023/10/17 09:23:22;;;;;;;;;;;18.80;45.50;;;;;;5047709;28;20021;-64
2023/10/17 09:25:52;;;;;;;;;;;18.80;45.50;;;;;;5051224;28;19921;-63
2023/10/17 09:28:22;;;;;;;;;;;18.80;45.50;;;;;;5052598;28;19921;-64
2023/10/17 09:30:57;;;;;;;;;;;18.80;45.50;;;;;;5049741;28;19921;-64
2023/10/17 09:33:30;;;;;;;;;;;18.80;45.50;;;;;;5052527;28;20370;-64
2023/10/17 09:35:58;;;;;;;;;;;18.80;45.40;;;;;;5052413;28;19951;-63
2023/10/17 09:38:25;;;;;;;;;;;18.80;45.40;;;;;;5052584;28;19927;-63
2023/10/17 09:40:53;;;;;;;;;;;18.80;45.40;;;;;;5052694;28;19925;-64
2023/10/17 09:43:20;;;;;;;;;;;18.80;45.40;;;;;;5052190;28;19925;-64
2023/10/17 09:45:47;;;;;;;;;;;18.80;45.40;;;;;;5052434;28;20023;-65
2023/10/17 09:48:14;;;;;;;;;;;18.80;45.30;;;;;;5052346;28;19956;-64
2023/10/17 09:50:45;;;;;;;;;;;18.80;45.30;;;;;;5052117;28;19928;-64
2023/10/17 09:53:13;;;;;;;;;;;18.80;45.30;;;;;;5052614;28;19921;-64
2023/10/17 09:55:40;;;;;;;;;;;18.80;45.30;;;;;;5051660;28;19921;-64
2023/10/17 09:58:08;;;;;;;;;;;18.80;45.30;;;;;;5053374;28;19921;-64
2023/10/17 10:00:36;;;;;;;;;;;18.80;45.30;;;;;;5051978;28;19963;-64
2023/10/17 10:03:02;;;;;;;;;;;18.80;45.20;;;;;;5045043;28;19924;-64
2023/10/17 10:05:29;;;;;;;;;;;18.80;45.20;;;;;;5052352;28;19925;-64
2023/10/17 10:07:58;;;;;;;;;;;18.80;45.20;;;;;;5052092;28;19925;-64
2023/10/17 10:10:55;;;;;;;;;;;18.80;45.30;;;;;;5052436;28;19925;-64
2023/10/17 10:13:22;;;;;;;;;;;18.80;45.20;;;;;;4994645;28;20007;-64
2023/10/17 10:15:53;;;;;;;;;;;18.80;45.20;;;;;;5031541;28;19944;-64
2023/10/17 10:18:34;;;;;;;;;;;18.90;45.20;;;;;;5039379;28;20322;-64
2023/10/17 10:21:01;;;;;;;;;;;18.90;45.20;;;;;;5033922;28;19979;-64
2023/10/17 10:23:35;;;;;;;;;;;18.80;45.00;;;;;;5043920;28;19951;-64
2023/10/17 10:26:19;;;;;;;;;;;18.90;45.10;;;;;;5044189;28;19949;-64
2023/10/17 10:28:46;;;;;;;;;;;18.90;45.20;;;;;;5051163;28;19925;-64
2023/10/17 10:31:32;;;;;;;;;;;18.90;45.20;;;;;;5057781;28;20290;-64
2023/10/17 10:33:59;;;;;;;;;;;18.80;45.20;;;;;;5051264;28;20355;-64
2023/10/17 10:36:26;;;;;;;;;;;18.90;45.20;;;;;;5050360;28;19921;-63
2023/10/17 10:38:54;;;;;;;;;;;18.90;45.20;;;;;;5049015;28;19925;-64
2023/10/17 10:41:22;;;;;;;;;;;18.90;45.10;;;;;;5044946;28;19939;-64
2023/10/17 10:43:49;;;;;;;;;;;18.80;45.00;;;;;;5050869;28;19928;-64
2023/10/17 10:46:17;;;;;;;;;;;18.90;45.10;;;;;;5042552;28;19921;-64
2023/10/17 10:48:47;;;;;;;;;;;18.90;45.00;;;;;;5045123;28;19922;-64
2023/10/17 10:51:15;;;;;;;;;;;18.90;45.30;;;;;;5050513;28;20440;-64
2023/10/17 10:53:44;;;;;;;;;;;18.80;44.90;;;;;;5042557;28;19921;-64
2023/10/17 10:56:13;;;;;;;;;;;18.80;45.00;;;;;;5043140;28;19925;-64
2023/10/17 10:58:43;;;;;;;;;;;18.90;45.00;;;;;;5042831;28;19925;-64
2023/10/17 11:01:10;;;;;;;;;;;18.90;44.90;;;;;;5051896;28;19920;-65
2023/10/17 11:03:39;;;;;;;;;;;18.90;44.90;;;;;;5050577;28;19925;-64
2023/10/17 11:06:08;;;;;;;;;;;18.90;45.00;;;;;;5034418;28;19921;-64
2023/10/17 11:08:35;;;;;;;;;;;18.90;45.00;;;;;;5050229;28;19927;-64
2023/10/17 11:11:03;;;;;;;;;;;18.90;45.00;;;;;;5051027;28;20039;-64
2023/10/17 11:13:35;;;;;;;;;;;18.90;45.00;;;;;;5042744;28;19925;-64
2023/10/17 11:16:04;;;;;;;;;;;18.90;45.00;;;;;;5025800;28;19925;-64
2023/10/17 11:18:33;;;;;;;;;;;18.90;45.00;;;;;;5050523;28;19921;-64
2023/10/17 11:21:00;;;;;;;;;;;18.90;44.90;;;;;;5050279;28;19921;-64
2023/10/17 11:23:27;;;;;;;;;;;18.90;45.00;;;;;;5050030;28;19928;-64
2023/10/17 11:25:54;;;;;;;;;;;18.90;44.90;;;;;;5039473;28;19929;-64
2023/10/17 11:28:21;;;;;;;;;;;18.90;44.80;;;;;;5037909;28;19921;-64
2023/10/17 11:30:50;;;;;;;;;;;18.90;44.90;;;;;;5048545;28;19943;-64
2023/10/17 11:33:18;;;;;;;;;;;18.90;44.90;;;;;;5050259;28;19920;-64
2023/10/17 11:35:48;;;;;;;;;;;18.90;44.90;;;;;;5050158;28;19932;-65
2023/10/17 11:38:34;;;;;;;;;;;18.90;44.80;;;;;;5050260;28;19929;-65
2023/10/17 11:41:01;;;;;;;;;;;18.90;44.80;;;;;;5050430;28;20322;-64
2023/10/17 11:43:33;;;;;;;;;;;18.90;44.80;;;;;;5049690;28;19921;-64
2023/10/17 11:46:02;;;;;;;;;;;18.90;44.80;;;;;;5051373;28;19975;-64
2023/10/17 11:48:30;;;;;;;;;;;18.90;44.70;;;;;;5049780;28;19932;-64
2023/10/17 11:51:07;;;;;;;;;;;18.90;44.70;;;;;;5033019;28;19933;-64
2023/10/17 11:53:34;;;;;;;;;;;18.90;44.70;;;;;;5053867;28;19925;-64
2023/10/17 11:56:01;;;;;;;;;;;18.90;44.70;;;;;;5049717;28;19929;-64
2023/10/17 11:58:29;;;;;;;;;;;18.90;44.80;;;;;;5049644;28;20186;-64
2023/10/17 12:00:56;;;;;;;;;;;18.90;44.80;;;;;;5050119;28;19927;-64
2023/10/17 12:03:26;;;;;;;;;;;18.90;44.80;;;;;;5049711;28;20248;-64
2023/10/17 12:05:53;;;;;;;;;;;18.90;44.80;;;;;;5050288;28;19943;-64
2023/10/17 12:08:23;;;;;;;;;;;18.90;44.80;;;;;;5049425;28;20026;-64
2023/10/17 12:10:50;;;;;;;;;;;18.90;44.80;;;;;;5051263;28;19920;-64
2023/10/17 12:13:18;;;;;;;;;;;18.90;44.80;;;;;;5043654;28;19921;-64
2023/10/17 12:15:45;;;;;;;;;;;18.90;44.80;;;;;;5047222;28;19929;-64
2023/10/17 12:18:12;;;;;;;;;;;18.90;44.80;;;;;;5036409;28;19960;-64
2023/10/17 12:20:41;;;;;;;;;;;18.90;44.70;;;;;;5030919;28;19990;-64
2023/10/17 12:23:09;;;;;;;;;;;19.00;44.70;;;;;;5050034;28;19944;-64
2023/10/17 12:25:36;;;;;;;;;;;19.00;44.80;;;;;;5049513;28;19921;-64
2023/10/17 12:28:06;;;;;;;;;;;18.90;44.70;;;;;;5051135;28;19920;-64
2023/10/17 12:30:35;;;;;;;;;;;18.90;44.70;;;;;;5050004;28;19982;-64
2023/10/17 12:33:03;;;;;;;;;;;18.90;44.70;;;;;;5041654;28;20382;-64
2023/10/17 12:35:29;;;;;;;;;;;18.90;44.60;;;;;;5050147;28;19925;-64
2023/10/17 12:38:06;;;;;;;;;;;18.90;44.50;;;;;;5050431;28;19944;-64
2023/10/17 12:40:32;;;;;;;;;;;18.90;44.40;;;;;;5051801;28;19920;-64
2023/10/17 12:43:01;;;;;;;;;;;18.90;44.30;;;;;;5054732;28;19975;-64
2023/10/17 12:45:30;;;;;;;;;;;19.00;44.50;;;;;;5046226;28;19921;-64
2023/10/17 12:47:56;;;;;;;;;;;19.00;44.60;;;;;;5052569;28;19931;-64
2023/10/17 12:50:23;;;;;;;;;;;19.00;44.50;;;;;;5052850;28;19921;-64
2023/10/17 12:52:50;;;;;;;;;;;18.90;44.30;;;;;;5043252;28;19925;-64
2023/10/17 12:55:20;;;;;;;;;;;18.90;44.00;;;;;;5047406;28;19955;-64
2023/10/17 12:57:46;;;;;;;;;;;18.90;43.70;;;;;;5053851;28;19939;-64
2023/10/17 13:00:15;;;;;;;;;;;19.00;43.70;;;;;;5053717;28;20368;-64
2023/10/17 13:02:42;;;;;;;;;;;19.00;43.80;;;;;;5046384;28;20134;-64
2023/10/17 13:05:10;;;;;;;;;;;18.90;43.90;;;;;;5054607;28;20420;-64
2023/10/17 13:07:37;;;;;;;;;;;18.90;44.00;;;;;;5053200;28;20020;-64
2023/10/17 13:10:04;;;;;;;;;;;19.00;44.10;;;;;;5053496;28;19921;-64
2023/10/17 13:12:32;;;;;;;;;;;18.90;44.10;;;;;;5054157;28;19925;-64
2023/10/17 13:14:58;;;;;;;;;;;18.90;44.10;;;;;;5053282;28;19990;-64
2023/10/17 13:17:25;;;;;;;;;;;19.00;44.30;;;;;;5054179;28;19936;-64
2023/10/17 13:19:53;;;;;;;;;;;19.00;44.20;;;;;;5053067;28;19944;-64
2023/10/17 13:22:21;;;;;;;;;;;19.00;44.30;;;;;;5047062;28;19925;-64
2023/10/17 13:24:50;;;;;;;;;;;19.00;44.10;;;;;;5050775;28;19928;-64
2023/10/17 13:27:16;;;;;;;;;;;19.00;44.60;;;;;;5032602;28;20273;-64
2023/10/17 13:29:45;;;;;;;;;;;19.00;44.10;;;;;;5049050;28;19975;-64
2023/10/17 13:32:13;;;;;;;;;;;19.00;44.20;;;;;;5045789;28;19990;-64
2023/10/17 13:34:39;;;;;;;;;;;19.00;44.20;;;;;;5052634;28;19991;-64
2023/10/17 13:37:07;;;;;;;;;;;19.00;44.30;;;;;;5040628;28;19922;-64
2023/10/17 13:39:34;;;;;;;;;;;19.00;44.30;;;;;;5033063;28;19991;-64
2023/10/17 13:42:02;;;;;;;;;;;19.00;44.30;;;;;;5052012;28;19933;-64
2023/10/17 13:44:29;;;;;;;;;;;19.00;44.10;;;;;;5044510;28;19971;-64
2023/10/17 13:46:57;;;;;;;;;;;19.00;44.10;;;;;;5032168;28;19931;-65
2023/10/17 13:49:26;;;;;;;;;;;19.00;44.10;;;;;;5046551;28;19921;-64
2023/10/17 13:51:54;;;;;;;;;;;19.00;44.10;;;;;;5051458;28;19921;-64
2023/10/17 13:54:20;;;;;;;;;;;19.00;44.20;;;;;;5053330;28;20034;-64
2023/10/17 13:56:47;;;;;;;;;;;19.00;44.20;;;;;;5052053;28;19925;-64
2023/10/17 13:59:14;;;;;;;;;;;19.00;44.30;;;;;;5051682;28;20077;-65
2023/10/17 14:01:46;;;;;;;;;;;19.00;44.20;;;;;;5043019;28;19936;-65
2023/10/17 14:04:14;;;;;;;;;;;19.00;44.20;;;;;;5051587;28;19921;-65
2023/10/17 14:06:42;;;;;;;;;;;19.00;44.20;;;;;;5042733;28;19921;-64
2023/10/17 14:09:15;;;;;;;;;;;19.00;44.20;;;;;;5031821;28;19927;-65
2023/10/17 14:11:42;;;;;;;;;;;19.00;44.20;;;;;;5048202;28;20309;-65
2023/10/17 14:14:11;;;;;;;;;;;19.00;44.20;;;;;;5047557;28;19920;-65
2023/10/17 14:16:41;;;;;;;;;;;19.00;44.20;;;;;;5053086;28;19925;-64
2023/10/17 14:19:15;;;;;;;;;;;19.00;44.20;;;;;;5051293;28;19920;-65
2023/10/17 14:22:01;;;;;;;;;;;19.00;44.20;;;;;;5050845;28;19921;-65
2023/10/17 14:24:29;;;;;;;;;;;19.10;44.90;;;;;;5050426;28;19927;-64
2023/10/17 14:26:55;;;;;;;;;;;19.00;44.30;;;;;;5050843;28;19931;-65
2023/10/17 14:29:22;;;;;;;;;;;19.00;44.20;;;;;;5044780;28;19921;-65
2023/10/17 14:31:48;;;;;;;;;;;19.00;44.10;;;;;;5049051;28;19931;-65
2023/10/17 14:34:15;;;;;;;;;;;19.00;44.10;;;;;;5046153;28;19921;-65
2023/10/17 14:36:43;;;;;;;;;;;19.00;44.10;;;;;;5047731;28;19931;-65
2023/10/17 14:39:11;;;;;;;;;;;19.00;44.00;;;;;;5050975;28;19924;-64
2023/10/17 14:41:40;;;;;;;;;;;19.00;44.10;;;;;;5050832;28;19927;-64
2023/10/17 14:44:06;;;;;;;;;;;19.00;44.10;;;;;;5038593;28;19968;-64
2023/10/17 14:46:33;;;;;;;;;;;19.00;44.20;;;;;;5048239;28;19921;-65
2023/10/17 14:49:01;;;;;;;;;;;19.00;44.10;;;;;;5047009;28;19932;-65
2023/10/17 14:51:28;;;;;;;;;;;19.00;44.00;;;;;;5031149;28;19929;-65
2023/10/17 14:53:55;;;;;;;;;;;19.00;44.10;;;;;;5033214;28;19953;-65
2023/10/17 14:56:27;;;;;;;;;;;19.00;44.10;;;;;;5050995;28;19927;-65
2023/10/17 14:58:55;;;;;;;;;;;19.10;44.10;;;;;;5050427;28;19968;-65
2023/10/17 15:01:22;;;;;;;;;;;19.00;43.90;;;;;;5043951;28;19925;-64
2023/10/17 15:03:50;;;;;;;;;;;19.10;43.90;;;;;;5040078;28;19963;-65
2023/10/17 15:06:17;;;;;;;;;;;19.00;43.80;;;;;;5057889;28;19932;-65
2023/10/17 15:08:43;;;;;;;;;;;19.00;43.70;;;;;;5049788;28;19955;-65
2023/10/17 15:11:10;;;;;;;;;;;19.00;44.30;;;;;;5050112;28;19924;-66
2023/10/17 15:13:39;;;;;;;;;;;19.00;43.80;;;;;;5049974;28;19925;-65
2023/10/17 15:16:13;;;;;;;;;;;19.00;43.70;;;;;;5049689;28;19971;-64
2023/10/17 15:18:40;;;;;;;;;;;19.00;43.60;;;;;;5049853;28;19929;-65
2023/10/17 15:21:08;;;;;;;;;;;19.00;43.60;;;;;;5037321;28;20319;-64
2023/10/17 15:23:34;;;;;;;;;;;19.00;43.50;;;;;;5029558;28;19921;-64
2023/10/17 15:26:01;;;;;;;;;;;19.00;43.50;;;;;;5041573;28;20325;-64
2023/10/17 15:28:29;;;;;;;;;;;19.00;43.60;;;;;;5041277;28;19928;-65
2023/10/17 15:31:03;;;;;;;;;;;19.00;43.50;;;;;;5050859;28;19928;-65
2023/10/17 15:33:32;;;;;;;;;;;19.00;43.50;;;;;;5049348;28;20326;-64
2023/10/17 15:35:59;;;;;;;;;;;19.00;43.60;;;;;;5050356;28;19920;-65
2023/10/17 15:38:25;;;;;;;;;;;19.00;43.50;;;;;;5050092;28;19975;-64
2023/10/17 15:40:53;;;;;;;;;;;19.00;43.50;;;;;;5049491;28;19924;-65
2023/10/17 15:43:20;;;;;;;;;;;19.00;43.40;;;;;;5057776;28;19925;-65
2023/10/17 15:45:51;;;;;;;;;;;19.00;43.40;;;;;;5040480;28;19953;-65
2023/10/17 15:48:20;;;;;;;;;;;19.00;43.40;;;;;;5029506;28;19951;-65
2023/10/17 15:50:47;;;;;;;;;;;19.00;43.30;;;;;;5038717;28;20257;-65
2023/10/17 15:53:13;;;;;;;;;;;19.00;43.30;;;;;;5049604;28;19927;-65
2023/10/17 15:55:40;;;;;;;;;;;19.00;43.30;;;;;;5040792;28;20429;-65